createdAt,value
2023-05-22T00:00:19.295Z,990.74
2023-05-22T00:01:19.336Z,990.75
2023-05-22T00:02:19.354Z,990.77
2023-05-22T00:03:19.280Z,990.73
2023-05-22T00:04:19.247Z,990.71
2023-05-22T00:05:19.242Z,990.72
2023-05-22T00:06:19.214Z,990.74
2023-05-22T00:07:19.224Z,990.77
2023-05-22T00:08:19.186Z,990.74
2023-05-22T00:09:19.188Z,990.75
2023-05-22T00:10:19.164Z,990.72
2023-05-22T00:11:19.261Z,990.69
2023-05-22T00:12:19.143Z,990.71
2023-05-22T00:13:19.126Z,990.70
2023-05-22T00:14:19.112Z,990.70
2023-05-22T00:15:19.105Z,990.71
2023-05-22T00:16:19.097Z,990.72
2023-05-22T00:17:19.133Z,990.70
2023-05-22T00:18:19.059Z,990.69
2023-05-22T00:19:19.063Z,990.73
2023-05-22T00:20:19.047Z,990.71
2023-05-22T00:21:19.020Z,990.73
2023-05-22T00:22:19.006Z,990.68
2023-05-22T00:23:19.024Z,990.71
2023-05-22T00:24:18.988Z,990.68
2023-05-22T00:25:18.992Z,990.66
2023-05-22T00:26:18.958Z,990.63
2023-05-22T00:27:18.951Z,990.62
2023-05-22T00:28:18.934Z,990.59
2023-05-22T00:29:18.922Z,990.57
2023-05-22T00:30:18.906Z,990.57
2023-05-22T00:31:18.891Z,990.59
2023-05-22T00:32:18.879Z,990.58
2023-05-22T00:33:18.887Z,990.57
2023-05-22T00:34:18.872Z,990.56
2023-05-22T00:35:18.841Z,990.57
2023-05-22T00:36:18.824Z,990.55
2023-05-22T00:37:18.828Z,990.54
2023-05-22T00:38:18.810Z,990.52
2023-05-22T00:39:18.794Z,990.51
2023-05-22T00:40:18.787Z,990.50
2023-05-22T00:41:18.769Z,990.48
2023-05-22T00:42:18.773Z,990.50
2023-05-22T00:43:18.760Z,990.50
2023-05-22T00:44:18.745Z,990.45
2023-05-22T00:45:18.766Z,990.50
2023-05-22T00:46:18.743Z,990.49
2023-05-22T00:47:18.688Z,990.50
2023-05-22T00:48:18.679Z,990.46
2023-05-22T00:49:18.667Z,990.46
2023-05-22T00:50:18.656Z,990.46
2023-05-22T00:51:18.633Z,990.44
2023-05-22T00:52:18.621Z,990.47
2023-05-22T00:53:18.609Z,990.45
2023-05-22T00:54:18.594Z,990.47
2023-05-22T00:55:18.596Z,990.48
2023-05-22T00:56:18.568Z,990.46
2023-05-22T00:57:18.559Z,990.47
2023-05-22T00:58:18.568Z,990.51
2023-05-22T00:59:18.544Z,990.45
2023-05-22T01:00:18.520Z,990.48
2023-05-22T01:01:18.552Z,990.48
2023-05-22T01:02:18.503Z,990.47
2023-05-22T01:03:18.664Z,990.48
2023-05-22T01:04:18.588Z,990.44
2023-05-22T01:05:18.514Z,990.48
2023-05-22T01:06:18.442Z,990.53
2023-05-22T01:07:18.423Z,990.46
2023-05-22T01:08:18.418Z,990.47
2023-05-22T01:09:18.409Z,990.48
2023-05-22T01:10:18.395Z,990.47
2023-05-22T01:11:18.369Z,990.49
2023-05-22T01:12:18.362Z,990.48
2023-05-22T01:13:18.348Z,990.50
2023-05-22T01:14:18.329Z,990.50
2023-05-22T01:15:18.335Z,990.47
2023-05-22T01:16:18.480Z,990.46
2023-05-22T01:17:18.296Z,990.49
2023-05-22T01:18:18.281Z,990.50
2023-05-22T01:19:18.349Z,990.46
2023-05-22T01:20:18.259Z,990.45
2023-05-22T01:21:18.247Z,990.46
2023-05-22T01:22:18.232Z,990.46
2023-05-22T01:23:18.221Z,990.50
2023-05-22T01:24:18.198Z,990.48
2023-05-22T01:25:18.213Z,990.49
2023-05-22T01:26:18.180Z,990.50
2023-05-22T01:27:18.165Z,990.46
2023-05-22T01:28:18.151Z,990.45
2023-05-22T01:29:18.142Z,990.48
2023-05-22T01:30:18.136Z,990.46
2023-05-22T01:31:18.117Z,990.46
2023-05-22T01:32:18.107Z,990.48
2023-05-22T01:33:18.242Z,990.46
2023-05-22T01:34:18.079Z,990.47
2023-05-22T01:35:18.072Z,990.52
2023-05-22T01:36:18.057Z,990.49
2023-05-22T01:37:18.056Z,990.50
2023-05-22T01:38:18.024Z,990.50
2023-05-22T01:39:18.039Z,990.49
2023-05-22T01:40:18.015Z,990.52
2023-05-22T01:41:17.985Z,990.51
2023-05-22T01:42:17.980Z,990.48
2023-05-22T01:43:17.988Z,990.50
2023-05-22T01:44:17.948Z,990.47
2023-05-22T01:45:17.934Z,990.54
2023-05-22T01:46:18.042Z,990.51
2023-05-22T01:47:17.900Z,990.46
2023-05-22T01:48:17.990Z,990.55
2023-05-22T01:49:17.876Z,990.53
2023-05-22T01:50:17.869Z,990.49
2023-05-22T01:51:17.851Z,990.46
2023-05-22T01:52:17.845Z,990.45
2023-05-22T01:53:17.824Z,990.53
2023-05-22T01:54:17.811Z,990.53
2023-05-22T01:55:17.817Z,990.48
2023-05-22T01:56:17.828Z,990.50
2023-05-22T01:57:17.777Z,990.48
2023-05-22T01:58:17.762Z,990.51
2023-05-22T01:59:17.747Z,990.49
2023-05-22T02:00:17.739Z,990.46
2023-05-22T02:01:17.756Z,990.49
2023-05-22T02:02:17.752Z,990.43
2023-05-22T02:03:17.885Z,990.42
2023-05-22T02:04:17.686Z,990.46
2023-05-22T02:05:17.672Z,990.47
2023-05-22T02:06:17.658Z,990.49
2023-05-22T02:07:17.643Z,990.44
2023-05-22T02:08:17.629Z,990.44
2023-05-22T02:09:17.615Z,990.49
2023-05-22T02:10:17.613Z,990.52
2023-05-22T02:11:17.589Z,990.49
2023-05-22T02:12:17.613Z,990.48
2023-05-22T02:13:17.571Z,990.48
2023-05-22T02:14:17.549Z,990.49
2023-05-22T02:15:17.535Z,990.50
2023-05-22T02:16:17.747Z,990.45
2023-05-22T02:17:17.515Z,990.45
2023-05-22T02:18:17.496Z,990.42
2023-05-22T02:19:17.502Z,990.49
2023-05-22T02:20:17.682Z,990.48
2023-05-22T02:21:17.459Z,990.43
2023-05-22T02:22:17.445Z,990.44
2023-05-22T02:23:17.443Z,990.44
2023-05-22T02:24:17.426Z,990.41
2023-05-22T02:25:17.732Z,990.41
2023-05-22T02:26:17.396Z,990.42
2023-05-22T02:27:17.437Z,990.39
2023-05-22T02:28:17.364Z,990.38
2023-05-22T02:29:17.363Z,990.39
2023-05-22T02:30:17.350Z,990.40
2023-05-22T02:31:17.411Z,990.36
2023-05-22T02:32:17.314Z,990.40
2023-05-22T02:33:17.301Z,990.37
2023-05-22T02:34:17.283Z,990.32
2023-05-22T02:35:17.275Z,990.35
2023-05-22T02:36:17.260Z,990.32
2023-05-22T02:37:17.249Z,990.33
2023-05-22T02:38:17.242Z,990.34
2023-05-22T02:39:17.220Z,990.34
2023-05-22T02:40:17.208Z,990.34
2023-05-22T02:41:17.191Z,990.35
2023-05-22T02:42:17.180Z,990.39
2023-05-22T02:43:17.169Z,990.32
2023-05-22T02:44:17.154Z,990.32
2023-05-22T02:45:17.150Z,990.31
2023-05-22T02:46:17.148Z,990.33
2023-05-22T02:47:17.113Z,990.37
2023-05-22T02:48:17.145Z,990.34
2023-05-22T02:49:17.090Z,990.35
2023-05-22T02:50:17.072Z,990.33
2023-05-22T02:51:17.060Z,990.32
2023-05-22T02:52:17.052Z,990.30
2023-05-22T02:53:17.041Z,990.29
2023-05-22T02:54:17.014Z,990.33
2023-05-22T02:55:17.002Z,990.31
2023-05-22T02:56:16.996Z,990.40
2023-05-22T02:57:16.977Z,990.35
2023-05-22T02:58:16.975Z,990.45
2023-05-22T02:59:16.949Z,990.44
2023-05-22T03:00:16.968Z,990.44
2023-05-22T03:01:16.950Z,990.42
2023-05-22T03:02:16.914Z,990.40
2023-05-22T03:03:17.012Z,990.43
2023-05-22T03:04:16.886Z,990.45
2023-05-22T03:05:16.873Z,990.44
2023-05-22T03:06:16.854Z,990.43
2023-05-22T03:07:16.841Z,990.45
2023-05-22T03:08:16.829Z,990.45
2023-05-22T03:09:16.814Z,990.48
2023-05-22T03:10:16.812Z,990.48
2023-05-22T03:11:16.788Z,990.49
2023-05-22T03:12:16.776Z,990.49
2023-05-22T03:13:16.766Z,990.52
2023-05-22T03:14:16.749Z,990.51
2023-05-22T03:15:16.735Z,990.50
2023-05-22T03:16:16.774Z,990.53
2023-05-22T03:17:16.716Z,990.53
2023-05-22T03:18:16.694Z,990.56
2023-05-22T03:19:16.745Z,990.54
2023-05-22T03:20:16.680Z,990.56
2023-05-22T03:21:16.666Z,990.62
2023-05-22T03:22:16.728Z,990.58
2023-05-22T03:23:16.629Z,990.56
2023-05-22T03:24:16.629Z,990.58
2023-05-22T03:25:16.605Z,990.57
2023-05-22T03:26:16.593Z,990.59
2023-05-22T03:27:16.594Z,990.58
2023-05-22T03:28:16.568Z,990.59
2023-05-22T03:29:16.612Z,990.59
2023-05-22T03:30:16.549Z,990.62
2023-05-22T03:31:16.534Z,990.63
2023-05-22T03:32:16.539Z,990.68
2023-05-22T03:33:16.529Z,990.63
2023-05-22T03:34:16.491Z,990.64
2023-05-22T03:35:16.532Z,990.68
2023-05-22T03:36:16.454Z,990.69
2023-05-22T03:37:16.464Z,990.71
2023-05-22T03:38:16.444Z,990.70
2023-05-22T03:39:16.432Z,990.71
2023-05-22T03:40:16.572Z,990.71
2023-05-22T03:41:16.421Z,990.71
2023-05-22T03:42:16.413Z,990.73
2023-05-22T03:43:16.369Z,990.73
2023-05-22T03:44:16.354Z,990.73
2023-05-22T03:45:16.343Z,990.75
2023-05-22T03:46:16.334Z,990.75
2023-05-22T03:47:16.328Z,990.78
2023-05-22T03:48:16.320Z,990.74
2023-05-22T03:49:16.287Z,990.77
2023-05-22T03:50:16.274Z,990.74
2023-05-22T03:51:18.080Z,990.74
2023-05-22T03:52:16.254Z,990.81
2023-05-22T03:53:16.236Z,990.77
2023-05-22T03:54:16.216Z,990.75
2023-05-22T03:55:16.200Z,990.75
2023-05-22T03:56:16.554Z,990.75
2023-05-22T03:57:16.207Z,990.73
2023-05-22T03:58:16.167Z,990.73
2023-05-22T03:59:16.154Z,990.76
2023-05-22T04:00:16.133Z,990.73
2023-05-22T04:01:16.124Z,990.76
2023-05-22T04:02:16.156Z,990.74
2023-05-22T04:03:16.209Z,990.77
2023-05-22T04:04:16.083Z,990.77
2023-05-22T04:05:16.121Z,990.72
2023-05-22T04:06:16.057Z,990.73
2023-05-22T04:07:16.046Z,990.73
2023-05-22T04:08:16.025Z,990.78
2023-05-22T04:09:16.025Z,990.73
2023-05-22T04:10:25.199Z,990.70
2023-05-22T04:12:21.088Z,990.75
2023-05-22T04:13:20.915Z,990.75
2023-05-22T04:15:25.273Z,990.76
2023-05-22T04:16:25.707Z,990.79
2023-05-22T04:20:25.880Z,990.81
2023-05-22T04:21:26.208Z,990.84
2023-05-22T04:23:31.436Z,990.85
2023-05-22T04:24:31.502Z,990.90
2023-05-22T04:25:31.398Z,990.84
2023-05-22T04:26:31.113Z,990.92
2023-05-22T04:27:31.117Z,990.86
2023-05-22T04:28:31.127Z,990.86
2023-05-22T04:29:31.406Z,990.87
2023-05-22T04:30:31.376Z,990.91
2023-05-22T04:31:31.424Z,990.84
2023-05-22T04:32:30.938Z,990.89
2023-05-22T04:33:30.900Z,990.87
2023-05-22T04:34:30.885Z,990.87
2023-05-22T04:35:30.878Z,990.88
2023-05-22T04:36:30.879Z,990.88
2023-05-22T04:37:30.863Z,990.86
2023-05-22T04:38:30.842Z,990.89
2023-05-22T04:39:30.822Z,990.91
2023-05-22T04:40:30.805Z,990.92
2023-05-22T04:41:30.794Z,990.93
2023-05-22T04:42:30.799Z,990.96
2023-05-22T04:43:30.769Z,990.96
2023-05-22T04:44:30.753Z,991.00
2023-05-22T04:45:30.756Z,991.01
2023-05-22T04:46:30.771Z,991.03
2023-05-22T04:47:30.748Z,991.03
2023-05-22T04:48:30.708Z,991.05
2023-05-22T04:49:30.694Z,991.07
2023-05-22T04:50:30.687Z,991.07
2023-05-22T04:51:30.665Z,991.07
2023-05-22T04:52:30.671Z,991.04
2023-05-22T04:53:30.640Z,991.09
2023-05-22T04:54:30.629Z,991.08
2023-05-22T04:55:30.610Z,991.09
2023-05-22T04:57:30.589Z,991.08
2023-05-22T04:58:30.569Z,991.12
2023-05-22T04:59:30.565Z,991.10
2023-05-22T05:00:30.556Z,991.13
2023-05-22T05:01:33.087Z,991.14
2023-05-22T05:02:30.552Z,991.10
2023-05-22T05:03:30.558Z,991.12
2023-05-22T05:04:30.504Z,991.12
2023-05-22T05:05:30.479Z,991.13
2023-05-22T05:06:30.468Z,991.12
2023-05-22T05:07:30.455Z,991.12
2023-05-22T05:08:30.439Z,991.12
2023-05-22T05:09:30.432Z,991.20
2023-05-22T05:10:30.415Z,991.14
2023-05-22T05:11:30.404Z,991.10
2023-05-22T05:12:30.385Z,991.12
2023-05-22T05:13:30.379Z,991.15
2023-05-22T05:14:30.378Z,991.14
2023-05-22T05:15:30.354Z,991.16
2023-05-22T05:16:30.419Z,991.20
2023-05-22T05:17:30.360Z,991.18
2023-05-22T05:18:30.317Z,991.19
2023-05-22T05:19:30.448Z,991.18
2023-05-22T05:20:30.306Z,991.21
2023-05-22T05:21:30.277Z,991.23
2023-05-22T05:22:30.377Z,991.24
2023-05-22T05:23:30.261Z,991.20
2023-05-22T05:24:30.240Z,991.23
2023-05-22T05:25:30.228Z,991.23
2023-05-22T05:26:30.212Z,991.23
2023-05-22T05:27:30.210Z,991.20
2023-05-22T05:28:30.189Z,991.20
2023-05-22T05:29:30.184Z,991.19
2023-05-22T05:30:30.161Z,991.21
2023-05-22T05:31:30.186Z,991.22
2023-05-22T05:32:30.153Z,991.22
2023-05-22T05:33:30.128Z,991.22
2023-05-22T05:34:30.114Z,991.20
2023-05-22T05:35:30.107Z,991.23
2023-05-22T05:36:30.136Z,991.21
2023-05-22T05:37:30.079Z,991.23
2023-05-22T05:38:30.069Z,991.25
2023-05-22T05:39:30.082Z,991.26
2023-05-22T05:40:30.048Z,991.23
2023-05-22T05:41:30.090Z,991.21
2023-05-22T05:42:30.042Z,991.26
2023-05-22T05:43:30.063Z,991.24
2023-05-22T05:44:30.018Z,991.24
2023-05-22T05:45:30.005Z,991.24
2023-05-22T05:46:30.046Z,991.22
2023-05-22T05:47:30.014Z,991.25
2023-05-22T05:48:29.968Z,991.26
2023-05-22T05:49:29.963Z,991.24
2023-05-22T05:50:29.935Z,991.27
2023-05-22T05:51:29.924Z,991.25
2023-05-22T05:52:29.913Z,991.28
2023-05-22T05:53:29.906Z,991.31
2023-05-22T05:54:29.896Z,991.31
2023-05-22T05:55:29.882Z,991.31
2023-05-22T05:56:29.870Z,991.29
2023-05-22T05:57:29.858Z,991.31
2023-05-22T05:58:29.846Z,991.27
2023-05-22T05:59:29.839Z,991.33
2023-05-22T06:00:29.893Z,991.34
2023-05-22T06:01:29.821Z,991.30
2023-05-22T06:02:29.880Z,991.34
2023-05-22T06:03:29.936Z,991.33
2023-05-22T06:04:29.793Z,991.33
2023-05-22T06:05:29.861Z,991.32
2023-05-22T06:06:29.769Z,991.31
2023-05-22T06:07:29.789Z,991.32
2023-05-22T06:08:29.758Z,991.29
2023-05-22T06:09:29.731Z,991.32
2023-05-22T06:10:29.790Z,991.35
2023-05-22T06:11:29.745Z,991.35
2023-05-22T06:12:29.742Z,991.36
2023-05-22T06:13:29.699Z,991.36
2023-05-22T06:14:29.688Z,991.38
2023-05-22T06:15:29.671Z,991.42
2023-05-22T06:16:29.834Z,991.39
2023-05-22T06:17:29.986Z,991.40
2023-05-22T06:18:29.653Z,991.40
2023-05-22T06:19:29.749Z,991.41
2023-05-22T06:20:29.682Z,991.44
2023-05-22T06:21:29.617Z,991.41
2023-05-22T06:22:29.622Z,991.40
2023-05-22T06:23:29.638Z,991.39
2023-05-22T06:24:29.590Z,991.41
2023-05-22T06:25:29.590Z,991.39
2023-05-22T06:26:29.569Z,991.40
2023-05-22T06:27:29.565Z,991.43
2023-05-22T06:28:29.554Z,991.38
2023-05-22T06:29:29.542Z,991.39
2023-05-22T06:30:39.529Z,991.43
2023-05-22T06:31:29.533Z,991.46
2023-05-22T06:32:29.599Z,991.42
2023-05-22T06:33:29.635Z,991.46
2023-05-22T06:34:29.703Z,991.46
2023-05-22T06:35:29.503Z,991.46
2023-05-22T06:36:29.494Z,991.41
2023-05-22T06:37:29.488Z,991.43
2023-05-22T06:38:29.477Z,991.42
2023-05-22T06:39:31.169Z,991.47
2023-05-22T06:40:29.504Z,991.45
2023-05-22T06:41:29.453Z,991.49
2023-05-22T06:42:29.442Z,991.46
2023-05-22T06:43:29.427Z,991.49
2023-05-22T06:44:29.428Z,991.48
2023-05-22T06:45:29.433Z,991.45
2023-05-22T06:46:29.509Z,991.46
2023-05-22T06:47:29.434Z,991.40
2023-05-22T06:48:29.395Z,991.46
2023-05-22T06:49:29.384Z,991.45
2023-05-22T06:50:29.467Z,991.45
2023-05-22T06:51:29.371Z,991.44
2023-05-22T06:52:29.357Z,991.42
2023-05-22T06:53:29.350Z,991.46
2023-05-22T06:54:29.346Z,991.47
2023-05-22T06:55:29.339Z,991.50
2023-05-22T06:56:29.332Z,991.56
2023-05-22T06:57:29.326Z,991.54
2023-05-22T06:58:29.321Z,991.55
2023-05-22T06:59:29.308Z,991.58
2023-05-22T07:00:29.428Z,991.59
2023-05-22T07:01:29.372Z,991.59
2023-05-22T07:02:29.360Z,991.61
2023-05-22T07:03:29.280Z,991.55
2023-05-22T07:04:29.277Z,991.59
2023-05-22T07:05:29.333Z,991.56
2023-05-22T07:06:29.274Z,991.56
2023-05-22T07:07:29.275Z,991.61
2023-05-22T07:08:30.732Z,991.64
2023-05-22T07:09:29.273Z,991.58
2023-05-22T07:10:29.238Z,991.60
2023-05-22T07:11:29.242Z,991.64
2023-05-22T07:12:29.261Z,991.65
2023-05-22T07:13:29.270Z,991.72
2023-05-22T07:14:29.217Z,991.76
2023-05-22T07:15:29.302Z,991.76
2023-05-22T07:16:29.269Z,991.78
2023-05-22T07:17:29.308Z,991.82
2023-05-22T07:18:29.307Z,991.86
2023-05-22T07:19:29.397Z,991.83
2023-05-22T07:20:29.298Z,991.83
2023-05-22T07:21:29.183Z,991.85
2023-05-22T07:22:29.187Z,991.83
2023-05-22T07:23:29.324Z,991.79
2023-05-22T07:24:29.174Z,991.80
2023-05-22T07:25:29.168Z,991.82
2023-05-22T07:26:29.162Z,991.85
2023-05-22T07:27:29.166Z,991.79
2023-05-22T07:28:29.155Z,991.81
2023-05-22T07:29:29.161Z,991.86
2023-05-22T07:30:29.160Z,991.85
2023-05-22T07:31:29.185Z,991.82
2023-05-22T07:32:29.241Z,991.82
2023-05-22T07:33:29.142Z,991.77
2023-05-22T07:34:29.694Z,991.79
2023-05-22T07:35:29.133Z,991.80
2023-05-22T07:36:29.151Z,991.80
2023-05-22T07:37:29.141Z,991.80
2023-05-22T07:38:29.129Z,991.86
2023-05-22T07:39:29.497Z,991.91
2023-05-22T07:40:29.124Z,991.90
2023-05-22T07:41:29.127Z,991.89
2023-05-22T07:42:29.138Z,991.89
2023-05-22T07:43:29.133Z,991.89
2023-05-22T07:44:29.115Z,991.95
2023-05-22T07:45:29.119Z,991.91
2023-05-22T07:46:29.246Z,991.85
2023-05-22T07:47:29.169Z,991.88
2023-05-22T07:48:29.106Z,991.85
2023-05-22T07:49:29.118Z,991.82
2023-05-22T07:50:29.100Z,991.79
2023-05-22T07:51:29.100Z,991.82
2023-05-22T07:52:29.107Z,991.84
2023-05-22T07:53:29.093Z,991.83
2023-05-22T07:54:29.099Z,991.90
2023-05-22T07:55:29.348Z,991.90
2023-05-22T07:56:29.096Z,991.89
2023-05-22T07:57:29.086Z,991.90
2023-05-22T07:58:29.089Z,991.91
2023-05-22T07:59:29.104Z,991.91
2023-05-22T08:00:29.090Z,991.94
2023-05-22T08:01:29.085Z,991.88
2023-05-22T08:02:29.164Z,991.90
2023-05-22T08:03:29.389Z,991.90
2023-05-22T08:04:29.188Z,991.92
2023-05-22T08:05:29.080Z,991.95
2023-05-22T08:06:29.082Z,991.98
2023-05-22T08:07:29.073Z,992.01
2023-05-22T08:08:31.714Z,991.98
2023-05-22T08:09:29.065Z,991.97
2023-05-22T08:10:37.278Z,991.97
2023-05-22T08:11:29.189Z,991.94
2023-05-22T08:12:29.060Z,991.96
2023-05-22T08:13:29.078Z,991.95
2023-05-22T08:14:29.055Z,991.95
2023-05-22T08:15:29.053Z,991.90
2023-05-22T08:16:29.136Z,991.93
2023-05-22T08:17:29.070Z,991.92
2023-05-22T08:18:29.409Z,991.92
2023-05-22T08:19:29.127Z,991.95
2023-05-22T08:20:29.116Z,991.90
2023-05-22T08:21:29.041Z,991.91
2023-05-22T08:22:29.068Z,991.94
2023-05-22T08:23:29.042Z,991.94
2023-05-22T08:24:29.049Z,991.94
2023-05-22T08:25:29.053Z,991.99
2023-05-22T08:26:30.155Z,991.99
2023-05-22T08:27:29.086Z,991.93
2023-05-22T08:28:29.027Z,991.93
2023-05-22T08:29:29.079Z,991.95
2023-05-22T08:30:29.019Z,991.98
2023-05-22T08:31:29.065Z,991.90
2023-05-22T08:32:30.516Z,991.91
2023-05-22T08:33:29.007Z,991.92
2023-05-22T08:34:29.016Z,991.93
2023-05-22T08:35:29.014Z,991.94
2023-05-22T08:36:29.006Z,991.91
2023-05-22T08:37:28.996Z,991.94
2023-05-22T08:38:28.999Z,991.94
2023-05-22T08:39:28.989Z,991.94
2023-05-22T08:40:28.989Z,991.96
2023-05-22T08:41:28.989Z,991.96
2023-05-22T08:42:28.997Z,992.02
2023-05-22T08:43:29.328Z,991.98
2023-05-22T08:44:28.973Z,992.04
2023-05-22T08:45:28.979Z,992.01
2023-05-22T08:46:29.016Z,991.99
2023-05-22T08:47:28.979Z,992.02
2023-05-22T08:48:28.954Z,992.07
2023-05-22T08:49:28.952Z,991.98
2023-05-22T08:50:28.977Z,991.96
2023-05-22T08:51:28.973Z,991.92
2023-05-22T08:52:28.960Z,992.02
2023-05-22T08:53:28.942Z,992.02
2023-05-22T08:54:28.941Z,991.97
2023-05-22T08:55:28.933Z,992.04
2023-05-22T08:56:29.750Z,992.02
2023-05-22T08:57:28.941Z,992.04
2023-05-22T08:58:28.929Z,992.05
2023-05-22T08:59:28.922Z,992.02
2023-05-22T09:00:28.918Z,992.07
2023-05-22T09:01:28.942Z,992.12
2023-05-22T09:02:28.931Z,992.12
2023-05-22T09:03:29.029Z,992.14
2023-05-22T09:04:28.911Z,992.11
2023-05-22T09:05:28.905Z,992.18
2023-05-22T09:06:28.913Z,992.11
2023-05-22T09:07:28.917Z,992.09
2023-05-22T09:08:28.901Z,992.12
2023-05-22T09:09:28.894Z,992.09
2023-05-22T09:10:28.895Z,992.04
2023-05-22T09:11:28.901Z,992.09
2023-05-22T09:12:28.919Z,992.08
2023-05-22T09:13:28.890Z,992.12
2023-05-22T09:14:28.891Z,992.05
2023-05-22T09:15:29.008Z,992.10
2023-05-22T09:16:28.903Z,992.09
2023-05-22T09:17:28.904Z,992.14
2023-05-22T09:18:28.910Z,992.12
2023-05-22T09:19:28.956Z,992.13
2023-05-22T09:20:28.883Z,992.14
2023-05-22T09:21:30.556Z,992.11
2023-05-22T09:22:28.909Z,992.15
2023-05-22T09:23:28.887Z,992.13
2023-05-22T09:24:28.886Z,992.13
2023-05-22T09:25:28.888Z,992.14
2023-05-22T09:26:28.885Z,992.15
2023-05-22T09:27:28.888Z,992.18
2023-05-22T09:28:29.064Z,992.16
2023-05-22T09:29:28.897Z,992.13
2023-05-22T09:30:28.907Z,992.14
2023-05-22T09:31:29.103Z,992.08
2023-05-22T09:34:11.180Z,992.11
2023-05-22T09:35:11.675Z,992.09
2023-05-22T09:37:16.434Z,992.10
2023-05-22T09:38:16.362Z,992.14
2023-05-22T09:39:16.368Z,992.19
2023-05-22T09:40:17.677Z,992.13
2023-05-22T09:41:19.425Z,992.16
2023-05-22T09:42:16.368Z,992.15
2023-05-22T09:43:16.317Z,992.14
2023-05-22T09:44:16.510Z,992.17
2023-05-22T09:45:16.330Z,992.18
2023-05-22T09:46:16.357Z,992.18
2023-05-22T09:47:16.401Z,992.16
2023-05-22T09:48:16.361Z,992.19
2023-05-22T09:50:57.629Z,992.24
2023-05-22T09:51:58.262Z,992.24
2023-05-22T09:54:09.573Z,992.27
2023-05-22T09:55:02.867Z,992.20
2023-05-22T09:57:08.642Z,992.27
2023-05-22T09:58:08.604Z,992.38
2023-05-22T10:00:14.127Z,992.33
2023-05-22T10:01:13.949Z,992.37
2023-05-22T10:02:13.861Z,992.40
2023-05-22T10:03:14.193Z,992.35
2023-05-22T10:04:14.005Z,992.42
2023-05-22T10:05:13.799Z,992.46
2023-05-22T10:06:13.813Z,992.50
2023-05-22T10:07:13.869Z,992.43
2023-05-22T10:08:13.825Z,992.47
2023-05-22T10:09:13.826Z,992.47
2023-05-22T10:10:13.832Z,992.48
2023-05-22T10:11:13.844Z,992.45
2023-05-22T10:12:13.908Z,992.41
2023-05-22T10:13:13.888Z,992.35
2023-05-22T10:14:13.948Z,992.33
2023-05-22T10:15:13.878Z,992.33
2023-05-22T10:16:13.913Z,992.30
2023-05-22T10:17:13.888Z,992.24
2023-05-22T10:18:13.903Z,992.22
2023-05-22T10:19:14.116Z,992.25
2023-05-22T10:20:13.947Z,992.22
2023-05-22T10:21:13.929Z,992.22
2023-05-22T10:22:13.933Z,992.18
2023-05-22T10:23:13.945Z,992.21
2023-05-22T10:24:13.954Z,992.17
2023-05-22T10:25:14.125Z,992.14
2023-05-22T10:26:13.972Z,992.17
2023-05-22T10:27:13.981Z,992.19
2023-05-22T10:28:13.996Z,992.17
2023-05-22T10:29:14.041Z,992.17
2023-05-22T10:30:14.013Z,991.83
2023-05-22T10:31:14.016Z,992.16
2023-05-22T10:32:14.274Z,992.18
2023-05-22T10:33:15.270Z,992.12
2023-05-22T10:34:14.045Z,992.12
2023-05-22T10:35:14.161Z,991.89
2023-05-22T10:36:14.093Z,991.96
2023-05-22T10:37:18.116Z,991.89
2023-05-22T10:38:14.090Z,991.81
2023-05-22T10:39:14.111Z,991.89
2023-05-22T10:40:14.121Z,991.90
2023-05-22T10:41:18.244Z,991.84
2023-05-22T10:42:14.128Z,992.04
2023-05-22T10:43:14.134Z,992.33
2023-05-22T10:44:14.138Z,991.93
2023-05-22T10:45:14.153Z,991.99
2023-05-22T10:46:14.192Z,991.78
2023-05-22T10:47:14.175Z,991.85
2023-05-22T10:48:14.185Z,991.79
2023-05-22T10:49:14.180Z,992.11
2023-05-22T10:50:14.191Z,991.75
2023-05-22T10:51:14.357Z,991.74
2023-05-22T10:52:14.228Z,991.77
2023-05-22T10:53:14.213Z,991.75
2023-05-22T10:54:14.215Z,991.79
2023-05-22T10:55:14.243Z,991.67
2023-05-22T10:56:16.652Z,991.79
2023-05-22T10:57:14.238Z,991.77
2023-05-22T10:58:14.240Z,991.76
2023-05-22T10:59:14.247Z,991.76
2023-05-22T11:00:14.313Z,991.90
2023-05-22T11:01:14.357Z,991.82
2023-05-22T11:02:14.317Z,991.65
2023-05-22T11:03:18.331Z,991.75
2023-05-22T11:04:14.632Z,991.64
2023-05-22T11:05:14.287Z,991.70
2023-05-22T11:06:14.287Z,991.73
2023-05-22T11:07:14.396Z,991.87
2023-05-22T11:08:14.298Z,991.72
2023-05-22T11:09:14.299Z,992.07
2023-05-22T11:10:14.310Z,991.87
2023-05-22T11:11:14.400Z,991.74
2023-05-22T11:12:14.344Z,991.68
2023-05-22T11:13:14.314Z,992.05
2023-05-22T11:14:14.368Z,991.86
2023-05-22T11:15:14.324Z,991.69
2023-05-22T11:16:14.333Z,991.83
2023-05-22T11:17:14.459Z,991.60
2023-05-22T11:18:14.486Z,991.74
2023-05-22T11:19:23.310Z,991.74
2023-05-22T11:20:14.358Z,991.65
2023-05-22T11:21:14.348Z,991.83
2023-05-22T11:22:14.369Z,991.91
2023-05-22T11:23:14.456Z,991.72
2023-05-22T11:24:14.358Z,991.84
2023-05-22T11:25:14.360Z,992.08
2023-05-22T11:26:14.364Z,992.02
2023-05-22T11:27:14.373Z,992.01
2023-05-22T11:28:14.378Z,991.96
2023-05-22T11:29:14.380Z,991.93
2023-05-22T11:30:14.387Z,991.94
2023-05-22T11:31:14.431Z,991.94
2023-05-22T11:32:14.397Z,991.97
2023-05-22T11:33:14.670Z,991.94
2023-05-22T11:34:14.427Z,991.91
2023-05-22T11:35:14.419Z,991.91
2023-05-22T11:36:14.434Z,991.88
2023-05-22T11:37:14.427Z,991.74
2023-05-22T11:38:19.524Z,991.48
2023-05-22T11:39:14.533Z,991.72
2023-05-22T11:40:14.439Z,991.56
2023-05-22T11:41:14.434Z,991.87
2023-05-22T11:42:14.518Z,991.85
2023-05-22T11:43:14.446Z,991.83
2023-05-22T11:44:14.455Z,991.80
2023-05-22T11:45:14.458Z,991.77
2023-05-22T11:46:14.508Z,991.77
2023-05-22T11:47:14.473Z,991.72
2023-05-22T11:48:15.689Z,991.74
2023-05-22T11:49:14.490Z,991.77
2023-05-22T11:50:17.868Z,991.70
2023-05-22T11:51:14.497Z,991.72
2023-05-22T11:52:14.501Z,991.68
2023-05-22T11:53:14.510Z,991.66
2023-05-22T11:54:14.635Z,991.64
2023-05-22T11:55:19.646Z,991.66
2023-05-22T11:56:14.540Z,991.62
2023-05-22T11:57:14.535Z,991.61
2023-05-22T11:58:14.582Z,991.60
2023-05-22T11:59:14.553Z,991.60
2023-05-22T12:00:14.742Z,991.55
2023-05-22T12:01:14.611Z,991.54
2023-05-22T12:02:14.562Z,991.52
2023-05-22T12:03:14.639Z,991.53
2023-05-22T12:04:14.664Z,991.48
2023-05-22T12:05:14.578Z,991.50
2023-05-22T12:06:16.524Z,991.47
2023-05-22T12:07:14.597Z,991.39
2023-05-22T12:08:14.630Z,991.34
2023-05-22T12:09:14.611Z,991.37
2023-05-22T12:10:14.710Z,991.34
2023-05-22T12:11:14.836Z,991.28
2023-05-22T12:12:14.663Z,991.30
2023-05-22T12:13:14.632Z,991.27
2023-05-22T12:14:14.644Z,991.32
2023-05-22T12:15:14.654Z,991.35
2023-05-22T12:16:14.696Z,991.31
2023-05-22T12:17:14.682Z,991.28
2023-05-22T12:18:14.695Z,991.23
2023-05-22T12:19:14.727Z,991.26
2023-05-22T12:20:14.709Z,991.25
2023-05-22T12:21:14.698Z,991.24
2023-05-22T12:22:14.776Z,991.30
2023-05-22T12:23:14.736Z,991.25
2023-05-22T12:24:14.707Z,991.22
2023-05-22T12:25:14.716Z,991.25
2023-05-22T12:26:14.817Z,991.20
2023-05-22T12:27:14.729Z,991.21
2023-05-22T12:28:14.725Z,991.20
2023-05-22T12:29:14.730Z,991.21
2023-05-22T12:30:14.984Z,991.20
2023-05-22T12:31:14.782Z,991.20
2023-05-22T12:32:14.781Z,991.16
2023-05-22T12:33:15.437Z,991.11
2023-05-22T12:34:14.770Z,991.12
2023-05-22T12:35:14.772Z,991.13
2023-05-22T12:36:14.798Z,991.13
2023-05-22T12:37:14.792Z,991.16
2023-05-22T12:38:14.802Z,991.11
2023-05-22T12:39:14.830Z,991.11
2023-05-22T12:40:14.817Z,991.12
2023-05-22T12:41:14.849Z,991.10
2023-05-22T12:42:14.921Z,991.13
2023-05-22T12:43:15.132Z,991.08